createdAt,value
2022-11-06T00:02:03.176Z,7.96
2022-11-06T00:04:33.773Z,7.95
2022-11-06T00:07:04.337Z,7.91
2022-11-06T00:09:36.989Z,7.84
2022-11-06T00:12:07.870Z,7.89
2022-11-06T00:14:38.257Z,7.87
2022-11-06T00:17:08.633Z,7.83
2022-11-06T00:19:39.219Z,7.86
2022-11-06T00:22:09.347Z,7.83
2022-11-06T00:24:40.037Z,7.75
2022-11-06T00:27:10.476Z,7.78
2022-11-06T00:29:41.281Z,7.77
2022-11-06T00:32:11.577Z,7.79
2022-11-06T00:34:42.002Z,7.73
2022-11-06T00:37:12.818Z,7.64
2022-11-06T00:39:43.108Z,7.55
2022-11-06T00:42:13.462Z,7.67
2022-11-06T00:44:43.766Z,7.58
2022-11-06T00:47:14.286Z,7.72
2022-11-06T00:49:44.492Z,7.68
2022-11-06T00:52:15.152Z,7.64
2022-11-06T00:54:45.294Z,7.57
2022-11-06T00:57:15.449Z,7.62
2022-11-06T00:59:45.511Z,7.61
2022-11-06T01:02:17.501Z,7.63
2022-11-06T01:04:47.833Z,7.58
2022-11-06T01:07:18.026Z,7.58
2022-11-06T01:09:48.202Z,7.57
2022-11-06T01:12:18.726Z,7.54
2022-11-06T01:14:48.905Z,7.44
2022-11-06T01:17:19.115Z,7.47
2022-11-06T01:19:49.394Z,7.42
2022-11-06T01:22:19.528Z,7.41
2022-11-06T01:24:49.774Z,7.47
2022-11-06T01:27:26.454Z,7.42
2022-11-06T01:29:57.090Z,7.44
2022-11-06T01:32:27.250Z,7.40
2022-11-06T01:34:57.466Z,7.40
2022-11-06T01:37:27.545Z,7.36
2022-11-06T01:39:57.764Z,7.35
2022-11-06T01:42:27.919Z,7.29
2022-11-06T01:45:18.206Z,7.33
2022-11-06T01:47:48.982Z,7.28
2022-11-06T01:50:19.707Z,7.25
2022-11-06T01:52:51.017Z,7.26
2022-11-06T01:55:29.967Z,7.29
2022-11-06T01:58:03.008Z,7.20
2022-11-06T02:00:33.549Z,7.17
2022-11-06T02:03:04.509Z,7.20
2022-11-06T02:05:36.811Z,7.16
2022-11-06T02:08:09.493Z,7.00
2022-11-06T02:10:41.269Z,7.11
2022-11-06T02:13:27.206Z,7.13
2022-11-06T02:16:16.945Z,7.10
2022-11-06T02:18:57.719Z,7.17
2022-11-06T02:21:45.998Z,7.16
2022-11-06T02:24:36.562Z,7.15
2022-11-06T02:27:14.682Z,7.15
2022-11-06T02:29:44.792Z,7.15
2022-11-06T02:32:20.684Z,7.13
2022-11-06T02:34:55.520Z,7.01
2022-11-06T02:37:30.262Z,7.03
2022-11-06T02:40:05.701Z,7.04
2022-11-06T02:42:40.728Z,7.01
2022-11-06T02:45:14.616Z,6.99
2022-11-06T02:47:49.157Z,6.92
2022-11-06T02:50:25.255Z,6.96
2022-11-06T02:53:02.424Z,6.90
2022-11-06T02:55:38.696Z,6.93
2022-11-06T02:58:14.630Z,6.89
2022-11-06T03:00:51.484Z,6.94
2022-11-06T03:03:25.627Z,6.93
2022-11-06T03:06:01.933Z,6.93
2022-11-06T03:08:36.428Z,6.87
2022-11-06T03:11:28.500Z,6.87
2022-11-06T03:14:09.264Z,6.87
2022-11-06T03:17:01.108Z,6.87
2022-11-06T03:20:00.034Z,6.83
2022-11-06T03:22:50.975Z,6.80
2022-11-06T03:25:27.045Z,6.70
2022-11-06T03:28:15.697Z,6.80
2022-11-06T03:30:54.634Z,6.75
2022-11-06T03:34:02.037Z,6.79
2022-11-06T03:36:42.593Z,6.79
2022-11-06T03:39:24.308Z,6.80
2022-11-06T03:42:11.718Z,6.77
2022-11-06T03:44:48.348Z,6.75
2022-11-06T03:47:24.948Z,6.74
2022-11-06T03:50:03.069Z,6.64
2022-11-06T03:52:40.275Z,6.64
2022-11-06T03:55:22.881Z,6.67
2022-11-06T03:58:16.786Z,6.68
2022-11-06T04:00:48.289Z,6.72
2022-11-06T04:03:27.253Z,6.73
2022-11-06T04:06:09.764Z,6.65
2022-11-06T04:08:59.418Z,6.70
2022-11-06T04:11:52.231Z,6.67
2022-11-06T04:14:27.002Z,6.69
2022-11-06T04:17:01.936Z,6.68
2022-11-06T04:19:32.094Z,6.67
2022-11-06T04:22:27.021Z,6.65
2022-11-06T04:25:41.626Z,6.61
2022-11-06T04:28:33.268Z,6.64
2022-11-06T04:31:37.461Z,6.59
2022-11-06T04:34:42.823Z,6.58
2022-11-06T04:37:25.610Z,6.58
2022-11-06T04:40:14.210Z,6.58
2022-11-06T04:43:03.731Z,6.50
2022-11-06T04:45:41.492Z,6.58
2022-11-06T04:48:12.764Z,6.48
2022-11-06T04:50:51.754Z,6.57
2022-11-06T04:53:24.184Z,6.52
2022-11-06T04:56:00.105Z,6.61
2022-11-06T04:58:30.241Z,6.61
2022-11-06T05:01:00.442Z,6.47
2022-11-06T05:03:30.820Z,6.57
2022-11-06T05:06:00.982Z,6.58
2022-11-06T05:08:31.135Z,6.53
2022-11-06T05:11:01.809Z,6.51
2022-11-06T05:13:32.034Z,6.56
2022-11-06T05:16:02.750Z,6.57
2022-11-06T05:18:33.144Z,6.51
2022-11-06T05:21:22.485Z,6.50
2022-11-06T05:23:52.542Z,6.48
2022-11-06T05:26:22.846Z,6.37
2022-11-06T05:28:52.908Z,6.42
2022-11-06T05:31:24.040Z,6.36
2022-11-06T05:33:54.513Z,6.42
2022-11-06T05:36:24.767Z,6.25
2022-11-06T05:38:54.962Z,6.45
2022-11-06T05:41:25.441Z,6.39
2022-11-06T05:43:55.665Z,6.44
2022-11-06T05:46:50.226Z,6.35
2022-11-06T05:49:15.967Z,6.38
2022-11-06T05:51:46.706Z,6.36
2022-11-06T05:54:16.907Z,6.31
2022-11-06T05:56:47.071Z,6.29
2022-11-06T05:59:17.238Z,6.28
2022-11-06T06:01:47.465Z,6.25
2022-11-06T06:04:17.682Z,6.23
2022-11-06T06:06:47.903Z,6.25
2022-11-06T06:09:18.016Z,6.27
2022-11-06T06:11:52.455Z,6.30
2022-11-06T06:14:22.743Z,6.36
2022-11-06T06:16:53.237Z,6.38
2022-11-06T06:19:23.389Z,6.33
2022-11-06T06:21:53.732Z,6.19
2022-11-06T06:24:24.052Z,6.29
2022-11-06T06:26:54.251Z,6.29
2022-11-06T06:29:24.452Z,6.30
2022-11-06T06:31:54.721Z,6.41
2022-11-06T06:34:24.826Z,6.43
2022-11-06T06:36:55.182Z,6.46
2022-11-06T06:39:25.932Z,6.44
2022-11-06T06:41:56.218Z,6.28
2022-11-06T06:44:26.418Z,6.40
2022-11-06T06:46:56.519Z,6.53
2022-11-06T06:49:27.470Z,6.51
2022-11-06T06:51:57.643Z,6.62
2022-11-06T06:54:27.804Z,6.57
2022-11-06T06:56:57.957Z,6.47
2022-11-06T06:59:29.307Z,6.45
2022-11-06T07:01:59.606Z,6.53
2022-11-06T07:04:29.825Z,6.67
2022-11-06T07:06:59.949Z,6.68
2022-11-06T07:09:34.715Z,6.76
2022-11-06T07:12:05.264Z,6.80
2022-11-06T07:14:35.529Z,6.82
2022-11-06T07:17:05.640Z,6.87
2022-11-06T07:19:35.820Z,6.93
2022-11-06T07:22:06.004Z,6.99
2022-11-06T07:24:36.129Z,6.96
2022-11-06T07:27:06.241Z,7.09
2022-11-06T07:29:36.412Z,7.06
2022-11-06T07:32:09.048Z,7.14
2022-11-06T07:34:39.197Z,7.04
2022-11-06T07:37:09.380Z,7.21
2022-11-06T07:39:39.730Z,7.17
2022-11-06T07:42:10.219Z,7.16
2022-11-06T07:44:40.365Z,7.15
2022-11-06T07:47:10.377Z,7.25
2022-11-06T07:49:40.492Z,7.20
2022-11-06T07:52:10.604Z,7.29
2022-11-06T07:54:40.976Z,7.23
2022-11-06T07:57:11.027Z,7.32
2022-11-06T07:59:42.697Z,7.26
2022-11-06T08:02:13.794Z,7.29
2022-11-06T08:04:44.430Z,7.36
2022-11-06T08:07:14.709Z,7.32
2022-11-06T08:09:44.831Z,7.36
2022-11-06T08:12:15.157Z,7.38
2022-11-06T08:14:45.324Z,7.39
2022-11-06T08:17:15.845Z,7.32
2022-11-06T08:19:46.102Z,7.29
2022-11-06T08:22:16.215Z,7.30
2022-11-06T08:24:46.405Z,7.30
2022-11-06T08:27:16.598Z,7.32
2022-11-06T08:29:46.680Z,7.28
2022-11-06T08:32:16.897Z,7.26
2022-11-06T08:34:46.990Z,7.30
2022-11-06T08:37:17.179Z,7.37
2022-11-06T08:39:47.319Z,7.35
2022-11-06T08:42:17.502Z,7.42
2022-11-06T08:44:47.686Z,7.44
2022-11-06T08:47:17.834Z,7.48
2022-11-06T08:49:48.003Z,7.47
2022-11-06T08:52:18.174Z,7.52
2022-11-06T08:54:48.357Z,7.54
2022-11-06T08:57:18.542Z,7.54
2022-11-06T08:59:48.650Z,7.48
2022-11-06T09:02:18.787Z,7.51
2022-11-06T09:04:49.327Z,7.57
2022-11-06T09:07:20.238Z,7.61
2022-11-06T09:09:50.619Z,7.58
2022-11-06T09:12:21.080Z,7.57
2022-11-06T09:14:51.209Z,7.60
2022-11-06T09:17:23.907Z,7.64
2022-11-06T09:19:54.046Z,7.68
2022-11-06T09:22:24.222Z,7.69
2022-11-06T09:25:09.254Z,7.71
2022-11-06T09:27:47.170Z,7.79
2022-11-06T09:30:19.900Z,7.81
2022-11-06T09:32:55.235Z,7.81
2022-11-06T09:35:29.395Z,7.82
2022-11-06T09:38:07.773Z,7.87
2022-11-06T09:40:42.462Z,7.91
2022-11-06T09:44:04.074Z,7.98
2022-11-06T09:46:39.565Z,8.02
2022-11-06T09:49:22.749Z,8.05
2022-11-06T09:52:15.455Z,8.05
2022-11-06T09:55:11.783Z,8.08
2022-11-06T09:57:44.791Z,8.15
2022-11-06T10:00:17.065Z,8.08
2022-11-06T10:03:08.882Z,8.17
2022-11-06T10:05:41.359Z,8.15
2022-11-06T10:08:27.382Z,8.14
2022-11-06T10:11:15.845Z,8.26
2022-11-06T10:14:31.265Z,8.26
2022-11-06T10:17:20.180Z,8.38
2022-11-06T10:19:57.465Z,8.39
2022-11-06T10:22:39.119Z,8.43
2022-11-06T10:25:22.596Z,8.50
2022-11-06T10:28:23.521Z,8.55
2022-11-06T10:31:05.919Z,8.62
2022-11-06T10:33:48.355Z,8.64
2022-11-06T10:36:23.482Z,8.67
2022-11-06T10:38:55.397Z,8.70
2022-11-06T10:41:34.762Z,8.77
2022-11-06T10:44:26.155Z,8.84
2022-11-06T10:47:04.058Z,8.87
2022-11-06T10:49:55.949Z,8.90
2022-11-06T10:52:34.994Z,8.96
2022-11-06T10:55:23.798Z,8.99
2022-11-06T10:57:57.130Z,8.92
2022-11-06T11:00:27.815Z,8.95
2022-11-06T11:03:01.540Z,9.06
2022-11-06T11:05:50.051Z,9.10
2022-11-06T11:08:33.913Z,9.15
2022-11-06T11:11:16.137Z,9.18
2022-11-06T11:13:49.675Z,9.17
2022-11-06T11:16:34.921Z,9.21
2022-11-06T11:19:25.267Z,9.25
2022-11-06T11:21:57.977Z,9.31
2022-11-06T11:24:28.592Z,9.34
2022-11-06T11:27:07.219Z,9.39
2022-11-06T11:29:48.289Z,9.36
2022-11-06T11:32:20.943Z,9.41
2022-11-06T11:34:56.875Z,9.49
2022-11-06T11:37:36.233Z,9.54
2022-11-06T11:40:37.215Z,9.48
2022-11-06T11:43:30.609Z,9.54
2022-11-06T11:46:09.699Z,9.57
2022-11-06T11:48:47.110Z,9.60
2022-11-06T11:51:33.629Z,9.59
2022-11-06T11:54:12.820Z,9.69
2022-11-06T11:57:06.700Z,9.67
2022-11-06T11:59:44.824Z,9.58
2022-11-06T12:02:34.157Z,9.66
2022-11-06T12:05:16.238Z,9.72
2022-11-06T12:07:54.814Z,9.76
2022-11-06T12:10:44.363Z,9.80
2022-11-06T12:13:17.976Z,9.86
2022-11-06T12:16:09.012Z,9.84
2022-11-06T12:18:45.464Z,9.87
2022-11-06T12:21:27.163Z,9.92
2022-11-06T12:24:18.965Z,9.97
2022-11-06T12:26:55.609Z,9.96
2022-11-06T12:29:31.118Z,10.03
2022-11-06T12:32:10.440Z,10.01
2022-11-06T12:34:48.511Z,9.96
2022-11-06T12:37:56.142Z,9.99
2022-11-06T12:40:32.095Z,10.03
2022-11-06T12:43:20.384Z,10.04
2022-11-06T12:46:27.815Z,10.05
2022-11-06T12:49:22.256Z,10.06
2022-11-06T12:52:05.586Z,10.00
2022-11-06T12:54:41.550Z,10.09
2022-11-06T12:57:30.221Z,10.15
2022-11-06T13:00:06.593Z,10.17
2022-11-06T13:02:58.566Z,10.18
2022-11-06T13:05:28.733Z,10.20
2022-11-06T13:08:36.060Z,10.20
2022-11-06T13:11:36.711Z,10.09
2022-11-06T13:14:18.830Z,10.19
2022-11-06T13:16:48.929Z,10.18
2022-11-06T13:19:24.954Z,10.19
2022-11-06T13:21:55.002Z,10.17
2022-11-06T13:24:40.605Z,10.17
2022-11-06T13:27:37.857Z,10.18
2022-11-06T13:30:20.300Z,10.16
2022-11-06T13:33:07.292Z,10.20
2022-11-06T13:35:41.738Z,10.12
2022-11-06T13:38:22.418Z,10.19
2022-11-06T13:41:00.646Z,10.18
2022-11-06T13:43:41.602Z,10.21
2022-11-06T13:46:56.163Z,10.20
2022-11-06T13:49:56.093Z,10.14
2022-11-06T13:52:41.127Z,10.21
2022-11-06T13:55:16.967Z,10.19
2022-11-06T13:58:05.579Z,10.21
2022-11-06T14:01:06.471Z,10.20
2022-11-06T14:03:54.756Z,10.21
2022-11-06T14:06:28.277Z,10.19
2022-11-06T14:09:06.624Z,10.12
2022-11-06T14:11:40.087Z,10.14
2022-11-06T14:14:25.341Z,10.14
2022-11-06T14:17:18.261Z,10.11
2022-11-06T14:19:51.419Z,10.08
2022-11-06T14:22:29.610Z,10.06
2022-11-06T14:25:02.231Z,9.95
2022-11-06T14:27:35.659Z,10.00
2022-11-06T14:30:18.049Z,9.98
2022-11-06T14:32:48.540Z,9.91
2022-11-06T14:35:33.534Z,9.90
2022-11-06T14:38:09.848Z,9.87
2022-11-06T14:40:40.109Z,9.79
2022-11-06T14:43:16.437Z,9.81
2022-11-06T14:45:57.159Z,9.77
2022-11-06T14:48:35.562Z,9.72
2022-11-06T14:51:08.606Z,9.58
2022-11-06T14:53:47.496Z,9.64
2022-11-06T14:56:39.557Z,9.58
2022-11-06T14:59:20.925Z,9.56
2022-11-06T15:02:26.179Z,9.46
2022-11-06T15:05:07.215Z,9.50
2022-11-06T15:10:42.502Z,9.42
2022-11-06T15:13:24.760Z,9.35
2022-11-06T15:16:01.859Z,9.36
2022-11-06T15:18:35.956Z,9.26
2022-11-06T15:21:09.942Z,9.30
2022-11-06T15:23:58.742Z,9.26
2022-11-06T15:26:36.941Z,9.21
2022-11-06T15:29:27.269Z,9.17
2022-11-06T15:32:12.323Z,9.11
2022-11-06T15:34:46.875Z,9.10
2022-11-06T15:37:23.921Z,8.98
2022-11-06T15:40:00.504Z,8.96
2022-11-06T15:42:37.585Z,9.05
2022-11-06T15:45:20.009Z,8.97
2022-11-06T15:48:06.700Z,8.97
2022-11-06T15:50:42.594Z,8.88
2022-11-06T15:53:13.029Z,8.95
2022-11-06T15:55:59.098Z,8.94
2022-11-06T15:58:34.829Z,8.92
2022-11-06T16:01:07.260Z,8.86
2022-11-06T16:03:48.913Z,8.82
2022-11-06T16:06:19.368Z,8.86
2022-11-06T16:08:51.395Z,8.80
2022-11-06T16:11:21.833Z,8.80
2022-11-06T16:13:52.316Z,8.71
2022-11-06T16:16:28.575Z,8.75
2022-11-06T16:18:58.879Z,8.77
2022-11-06T16:21:33.267Z,8.75
2022-11-06T16:24:16.152Z,8.75
2022-11-06T16:26:51.476Z,8.72
2022-11-06T16:29:28.065Z,8.66
2022-11-06T16:32:17.680Z,8.68
2022-11-06T16:34:48.617Z,8.69
2022-11-06T16:37:18.703Z,8.68
2022-11-06T16:39:51.006Z,8.64
2022-11-06T16:42:36.110Z,8.64
2022-11-06T16:45:18.206Z,8.62
2022-11-06T16:48:06.704Z,8.58
2022-11-06T16:50:44.218Z,8.53
2022-11-06T16:53:27.697Z,8.54
2022-11-06T16:56:02.276Z,8.52
2022-11-06T16:58:44.069Z,8.52
2022-11-06T17:01:20.153Z,8.50
2022-11-06T17:03:56.454Z,8.47
2022-11-06T17:06:32.188Z,8.31
2022-11-06T17:09:24.566Z,8.45
2022-11-06T17:11:56.054Z,8.36
2022-11-06T17:14:26.895Z,8.40
2022-11-06T17:16:59.673Z,8.40
2022-11-06T17:19:30.464Z,8.30
2022-11-06T17:22:01.008Z,8.35
2022-11-06T17:24:38.527Z,8.26
2022-11-06T17:27:08.824Z,8.33
2022-11-06T17:29:39.195Z,8.31
2022-11-06T17:32:09.308Z,8.32
2022-11-06T17:34:39.479Z,8.29
2022-11-06T17:37:11.092Z,8.28
2022-11-06T17:39:41.245Z,8.26
2022-11-06T17:42:11.495Z,8.23
2022-11-06T17:44:41.639Z,8.19
2022-11-06T17:47:11.735Z,8.21
2022-11-06T17:49:41.884Z,8.15
2022-11-06T17:52:11.957Z,8.10
2022-11-06T17:54:42.164Z,8.12
2022-11-06T17:57:12.290Z,8.12
2022-11-06T17:59:42.642Z,8.08
2022-11-06T18:02:29.757Z,8.07
2022-11-06T18:05:08.925Z,8.00
2022-11-06T18:07:39.080Z,8.06
2022-11-06T18:10:09.840Z,8.08
2022-11-06T18:12:40.067Z,8.00
2022-11-06T18:15:11.168Z,8.03
2022-11-06T18:17:41.281Z,8.00
2022-11-06T18:20:11.841Z,8.02
2022-11-06T18:22:41.930Z,8.03
2022-11-06T18:25:12.131Z,8.02
2022-11-06T18:27:42.254Z,8.01
2022-11-06T18:30:12.888Z,7.96
2022-11-06T18:32:50.959Z,7.92
2022-11-06T18:35:28.103Z,7.95
2022-11-06T18:37:58.315Z,7.93
2022-11-06T18:40:28.544Z,7.88
2022-11-06T18:42:58.755Z,7.85
2022-11-06T18:45:28.824Z,7.90
2022-11-06T18:47:59.075Z,7.89
2022-11-06T18:50:29.212Z,7.86
2022-11-06T18:52:59.308Z,7.86
2022-11-06T18:55:29.646Z,7.82
2022-11-06T18:58:00.014Z,7.75
2022-11-06T19:00:30.171Z,7.75
2022-11-06T19:03:01.037Z,7.77
2022-11-06T19:05:32.800Z,7.75
2022-11-06T19:08:03.939Z,7.76
2022-11-06T19:10:34.030Z,7.68
2022-11-06T19:13:04.998Z,7.73
2022-11-06T19:15:35.131Z,7.73
2022-11-06T19:18:05.374Z,7.75
2022-11-06T19:20:35.776Z,7.76
2022-11-06T19:23:05.928Z,7.71
2022-11-06T19:25:36.112Z,7.73
2022-11-06T19:28:06.830Z,7.64
2022-11-06T19:30:37.038Z,7.70
2022-11-06T19:33:07.251Z,7.59
2022-11-06T19:35:37.580Z,7.65
2022-11-06T19:38:07.893Z,7.59
2022-11-06T19:40:38.015Z,7.59
2022-11-06T19:43:09.880Z,7.64
2022-11-06T19:45:40.008Z,7.56
2022-11-06T19:48:10.094Z,7.48
2022-11-06T19:50:59.780Z,7.55
2022-11-06T19:53:30.599Z,7.53
2022-11-06T19:56:05.033Z,7.59
2022-11-06T19:58:35.892Z,7.53
2022-11-06T20:01:08.368Z,7.57
2022-11-06T20:03:39.123Z,7.55
2022-11-06T20:06:09.899Z,7.52
2022-11-06T20:08:40.460Z,7.48
2022-11-06T20:11:13.195Z,7.51
2022-11-06T20:13:45.318Z,7.45
2022-11-06T20:16:19.233Z,7.49
2022-11-06T20:18:57.079Z,7.47
2022-11-06T20:21:29.522Z,7.53
2022-11-06T20:24:00.100Z,7.52
2022-11-06T20:26:30.690Z,7.52
2022-11-06T20:29:05.083Z,7.47
2022-11-06T20:31:36.303Z,7.48
2022-11-06T20:34:06.491Z,7.49
2022-11-06T20:36:37.343Z,7.47
2022-11-06T20:39:07.605Z,7.45
2022-11-06T20:41:38.407Z,7.42
2022-11-06T20:44:08.591Z,7.36
2022-11-06T20:46:38.989Z,7.31
2022-11-06T20:49:09.100Z,7.30
2022-11-06T20:52:11.496Z,7.36
2022-11-06T20:54:29.932Z,7.36
2022-11-06T20:57:00.063Z,7.33
2022-11-06T20:59:31.273Z,7.26
2022-11-06T21:02:02.097Z,7.18
2022-11-06T21:04:32.517Z,7.31
2022-11-06T21:07:02.671Z,7.30
2022-11-06T21:09:32.883Z,7.29
2022-11-06T21:12:03.141Z,7.24
2022-11-06T21:14:33.690Z,7.24
2022-11-06T21:17:03.926Z,7.23
2022-11-06T21:19:36.340Z,7.24
2022-11-06T21:22:06.555Z,7.23
2022-11-06T21:24:36.818Z,7.22
2022-11-06T21:27:06.904Z,7.25
2022-11-06T21:29:37.059Z,7.25
2022-11-06T21:32:07.456Z,7.17
2022-11-06T21:34:37.557Z,7.15
2022-11-06T21:37:08.083Z,7.24
2022-11-06T21:39:38.221Z,7.25
2022-11-06T21:42:08.471Z,7.26
2022-11-06T21:44:39.388Z,7.21
2022-11-06T21:47:09.497Z,7.18
2022-11-06T21:49:39.658Z,7.23
2022-11-06T21:52:29.427Z,7.24
2022-11-06T21:55:18.487Z,7.24
2022-11-06T21:57:48.613Z,7.21
2022-11-06T22:00:18.899Z,7.14
2022-11-06T22:02:51.227Z,7.06
2022-11-06T22:05:22.462Z,7.07
2022-11-06T22:07:52.615Z,6.99
2022-11-06T22:10:22.814Z,7.11
2022-11-06T22:12:53.027Z,7.03
2022-11-06T22:15:23.135Z,7.06
2022-11-06T22:17:53.937Z,7.05
2022-11-06T22:20:24.155Z,7.04
2022-11-06T22:22:54.403Z,7.08
2022-11-06T22:25:24.568Z,6.93
2022-11-06T22:27:54.685Z,6.98
2022-11-06T22:30:24.878Z,7.04
2022-11-06T22:32:55.623Z,7.09
2022-11-06T22:35:26.429Z,7.09
2022-11-06T22:37:56.717Z,7.10
2022-11-06T22:40:26.851Z,7.03
2022-11-06T22:42:57.134Z,7.10
2022-11-06T22:45:27.280Z,7.03
2022-11-06T22:47:57.766Z,7.05
2022-11-06T22:50:27.884Z,7.05
2022-11-06T22:52:57.976Z,7.06
2022-11-06T22:55:28.472Z,7.05
2022-11-06T22:57:58.678Z,6.94
2022-11-06T23:00:28.859Z,7.00
2022-11-06T23:02:59.141Z,7.00
2022-11-06T23:05:29.327Z,7.00
2022-11-06T23:07:59.852Z,7.03
2022-11-06T23:10:30.098Z,6.90
2022-11-06T23:13:00.440Z,6.99
2022-11-06T23:15:31.592Z,7.01
2022-11-06T23:18:02.098Z,7.05
2022-11-06T23:20:34.754Z,7.02
2022-11-06T23:23:05.032Z,7.03
2022-11-06T23:25:35.345Z,7.00
2022-11-06T23:28:05.712Z,6.97
2022-11-06T23:30:35.835Z,7.00
2022-11-06T23:33:05.941Z,6.99
2022-11-06T23:35:36.377Z,6.95
2022-11-06T23:38:06.498Z,6.91
2022-11-06T23:40:36.913Z,6.92
2022-11-06T23:43:07.053Z,6.89
2022-11-06T23:45:49.146Z,6.96
2022-11-06T23:48:19.416Z,6.97
2022-11-06T23:50:49.547Z,6.93
2022-11-06T23:53:19.791Z,6.86
2022-11-06T23:55:49.929Z,6.94
2022-11-06T23:58:20.407Z,6.93
